^^
Paulen-Weather Station Historical Data
Daily Summary for July 12, 2022 Units:  Metric    English   Both
Daily Weekly Monthly Yearly Custom
  High: Low: Average:
Temperature: 18 °C 16 °C 16.8 °C
Dew Point: 16 °C 13 °C 14.3 °C
Humidity: 90% 81% 85%
Wind Speed: 12km/h 0km/h 7.1km/h
Wind Gust: 10km/h - -
Wind- - SW
Pressure: 1019.81 hPa 1018.83 hPa -
Precipitation: 0 mm    
Historical Graphs
 
 
Tabular Data for July 12, 2022
Time Temperature Dew Point Pressure Wind Wind Speed Wind Gust Humidity Rainfall Rate (Hourly) solar
00:04 18 °C 16 °C 1018.83 hPa SE 3 km/h 2 km/h 90% 0 mm 0 W/m2
00:09 18 °C 16 °C 1018.93 hPa SSE 4 km/h 2 km/h 90% 0 mm 0 W/m2
00:14 18 °C 16 °C 1018.96 hPa S 2 km/h 1 km/h 89% 0 mm 0 W/m2
00:19 18 °C 16 °C 1019 hPa S 2 km/h 2 km/h 90% 0 mm 0 W/m2
00:24 18 °C 16 °C 1018.96 hPa SSW 2 km/h 2 km/h 89% 0 mm 0 W/m2
00:29 18 °C 16 °C 1018.93 hPa Calm     89% 0 mm 0 W/m2
00:34 17 °C 16 °C 1019.03 hPa SW 2 km/h 3 km/h 89% 0 mm 0 W/m2
00:39 17 °C 16 °C 1019.03 hPa WSW 3 km/h 3 km/h 89% 0 mm 0 W/m2
00:44 17 °C 15 °C 1019 hPa WNW 5 km/h 4 km/h 88% 0 mm 0 W/m2
00:49 17 °C 15 °C 1018.93 hPa W 3 km/h 3 km/h 87% 0 mm 0 W/m2
00:54 17 °C 15 °C 1019.03 hPa WSW 4 km/h 4 km/h 87% 0 mm 0 W/m2
00:59 17 °C 15 °C 1019.03 hPa WSW 10 km/h 7 km/h 86% 0 mm 0 W/m2
01:04 17 °C 15 °C 1019.07 hPa SW 8 km/h 8 km/h 86% 0 mm 0 W/m2
01:09 17 °C 14 °C 1019.1 hPa SW 7 km/h 7 km/h 85% 0 mm 0 W/m2
01:14 17 °C 14 °C 1019.1 hPa SW 7 km/h 6 km/h 84% 0 mm 0 W/m2
01:19 17 °C 14 °C 1019.1 hPa SW 7 km/h 6 km/h 84% 0 mm 0 W/m2
01:24 17 °C 14 °C 1019.13 hPa SW 7 km/h 5 km/h 83% 0 mm 0 W/m2
01:29 17 °C 14 °C 1019.13 hPa WSW 5 km/h 4 km/h 83% 0 mm 0 W/m2
01:34 17 °C 14 °C 1019.13 hPa WSW 4 km/h 3 km/h 83% 0 mm 0 W/m2
01:39 17 °C 14 °C 1019.1 hPa W 6 km/h 4 km/h 83% 0 mm 0 W/m2
01:44 17 °C 14 °C 1019.1 hPa WSW 5 km/h 4 km/h 84% 0 mm 0 W/m2
01:49 17 °C 14 °C 1019.1 hPa WSW 6 km/h 5 km/h 84% 0 mm 0 W/m2
01:54 17 °C 14 °C 1019.07 hPa WSW 6 km/h 3 km/h 84% 0 mm 0 W/m2
01:59 17 °C 14 °C 1019.1 hPa W 4 km/h 3 km/h 84% 0 mm 0 W/m2
02:04 17 °C 14 °C 1019.13 hPa W 5 km/h 4 km/h 84% 0 mm 0 W/m2
02:09 17 °C 14 °C 1019.07 hPa WSW 5 km/h 4 km/h 84% 0 mm 0 W/m2
02:14 17 °C 14 °C 1019.17 hPa SW 7 km/h 6 km/h 84% 0 mm 0 W/m2
02:19 17 °C 14 °C 1019.1 hPa SW 7 km/h 7 km/h 83% 0 mm 0 W/m2
02:24 17 °C 14 °C 1019.1 hPa SW 5 km/h 4 km/h 83% 0 mm 0 W/m2
02:29 17 °C 14 °C 1019.27 hPa WSW 8 km/h 6 km/h 83% 0 mm 0 W/m2
02:34 17 °C 14 °C 1019.27 hPa SW 10 km/h 6 km/h 82% 0 mm 0 W/m2
02:39 17 °C 14 °C 1019.24 hPa SW 6 km/h 4 km/h 82% 0 mm 0 W/m2
02:44 17 °C 14 °C 1019.2 hPa SW 6 km/h 5 km/h 82% 0 mm 0 W/m2
02:49 17 °C 14 °C 1019.3 hPa SW 8 km/h 6 km/h 82% 0 mm 0 W/m2
02:54 17 °C 14 °C 1019.27 hPa SW 6 km/h 6 km/h 82% 0 mm 0 W/m2
02:59 17 °C 14 °C 1019.27 hPa SW 5 km/h 3 km/h 82% 0 mm 0 W/m2
03:04 17 °C 14 °C 1019.37 hPa SW 7 km/h 7 km/h 82% 0 mm 0 W/m2
03:09 17 °C 13 °C 1019.4 hPa SW 7 km/h 7 km/h 81% 0 mm 0 W/m2
03:14 17 °C 13 °C 1019.4 hPa SW 6 km/h 5 km/h 81% 0 mm 0 W/m2
03:19 17 °C 13 °C 1019.4 hPa SW 6 km/h 5 km/h 81% 0 mm 0 W/m2
03:24 17 °C 13 °C 1019.37 hPa SW 7 km/h 6 km/h 81% 0 mm 0 W/m2
03:29 17 °C 13 °C 1019.34 hPa WSW 7 km/h 7 km/h 81% 0 mm 0 W/m2
03:34 17 °C 13 °C 1019.3 hPa SW 7 km/h 4 km/h 81% 0 mm 0 W/m2
03:39 17 °C 14 °C 1019.27 hPa SW 9 km/h 7 km/h 82% 0 mm 0 W/m2
03:44 17 °C 13 °C 1019.3 hPa SW 8 km/h 7 km/h 81% 0 mm 0 W/m2
03:49 17 °C 13 °C 1019.3 hPa SW 8 km/h 7 km/h 81% 0 mm 0 W/m2
03:54 17 °C 14 °C 1019.3 hPa SW 11 km/h 8 km/h 82% 0 mm 0 W/m2
03:59 17 °C 14 °C 1019.3 hPa SW 10 km/h 8 km/h 82% 0 mm 0 W/m2
04:04 17 °C 14 °C 1019.24 hPa SW 11 km/h 10 km/h 82% 0 mm 0 W/m2
04:09 17 °C 14 °C 1019.24 hPa SW 10 km/h 9 km/h 82% 0 mm 0 W/m2
04:14 17 °C 14 °C 1019.24 hPa SW 10 km/h 8 km/h 82% 0 mm 0 W/m2
04:19 17 °C 14 °C 1019.34 hPa SW 11 km/h 9 km/h 83% 0 mm 0 W/m2
04:24 17 °C 14 °C 1019.34 hPa SW 11 km/h 9 km/h 84% 0 mm 0 W/m2
04:29 17 °C 14 °C 1019.37 hPa SW 12 km/h 9 km/h 85% 0 mm 0 W/m2
04:34 16 °C 14 °C 1019.34 hPa SW 12 km/h 10 km/h 86% 0 mm 5 W/m2
04:39 16 °C 14 °C 1019.34 hPa SW 11 km/h 10 km/h 86% 0 mm 5 W/m2
04:44 16 °C 14 °C 1019.37 hPa SW 9 km/h 8 km/h 87% 0 mm 5 W/m2
04:49 16 °C 14 °C 1019.37 hPa SW 11 km/h 7 km/h 87% 0 mm 7 W/m2
04:54 16 °C 14 °C 1019.37 hPa SW 11 km/h 8 km/h 88% 0 mm 14 W/m2
04:59 16 °C 14 °C 1019.44 hPa SW 10 km/h 7 km/h 88% 0 mm 16 W/m2
05:04 16 °C 14 °C 1019.51 hPa SW 8 km/h 7 km/h 88% 0 mm 21 W/m2
05:09 16 °C 14 °C 1019.68 hPa SW 8 km/h 5 km/h 88% 0 mm 26 W/m2
05:14 16 °C 14 °C 1019.74 hPa SW 7 km/h 5 km/h 88% 0 mm 30 W/m2
05:19 17 °C 15 °C 1019.74 hPa SW 6 km/h 5 km/h 88% 0 mm 35 W/m2
05:24 17 °C 15 °C 1019.74 hPa SW 7 km/h 6 km/h 88% 0 mm 35 W/m2
05:29 17 °C 15 °C 1019.81 hPa SSW 7 km/h 5 km/h 87% 0 mm 32 W/m2
05:34 17 °C 14 °C 1019.78 hPa SW 9 km/h 7 km/h 87% 0 mm 25 W/m2
05:39 16 °C 14 °C 1019.74 hPa SW 6 km/h 5 km/h 87% 0 mm 28 W/m2
05:44 16 °C 14 °C 1019.74 hPa SW 6 km/h 5 km/h 88% 0 mm 30 W/m2
05:49 16 °C 14 °C 1019.68 hPa SW 6 km/h 3 km/h 88% 0 mm 32 W/m2
05:54 16 °C 14 °C 1019.64 hPa SW 4 km/h 3 km/h 88% 0 mm 37 W/m2
05:59 16 °C 14 °C 1019.64 hPa SW 6 km/h 5 km/h 88% 0 mm 42 W/m2
06:04 16 °C 14 °C 1019.71 hPa SW 9 km/h 7 km/h 88% 0 mm 47 W/m2
06:09 16 °C 14 °C 1019.74 hPa SW 8 km/h 7 km/h 88% 0 mm 53 W/m2
06:14 16 °C 14 °C 1019.71 hPa SW 10 km/h 9 km/h 88% 0 mm 54 W/m2
06:19 16 °C 14 °C 1019.71 hPa SW 8 km/h 8 km/h 88% 0 mm 54 W/m2
06:24 16 °C 15 °C 1019.68 hPa SW 10 km/h 9 km/h 88% 0 mm 53 W/m2
06:29 16 °C 15 °C 1019.64 hPa SW 10 km/h 9 km/h 89% 0 mm 54 W/m2
06:34 17 °C 15 °C 1019.68 hPa SW 10 km/h 8 km/h 89% 0 mm 56 W/m2
06:39 17 °C 15 °C 1019.64 hPa SW 8 km/h 8 km/h 89% 0 mm 56 W/m2
06:44 17 °C 15 °C 1019.71 hPa SW 11 km/h 9 km/h 89% 0 mm 65 W/m2
Compliments of Weather Underground - 2 mb